This is the latest recevied weather packets stored in our database for station/object G4GVZ-1. If no packets are shown the sender has not sent any weather packets the latest 10 day(s).
| Time | Temp. | Humidity | Pressure | Rain* | Wind** | Luminosity | Snow |
|---|---|---|---|---|---|---|---|
| 1777735848 | 17.78° C | 63% | 1011.6 hPa | 0 mm | - | - | - |
| 1777734948 | 17.78° C | 62% | 1011.8 hPa | 0 mm | - | - | - |
| 1777734050 | 18.33° C | 62% | 1012.2 hPa | 0 mm | - | - | - |
| 1777733149 | 18.33° C | 60% | 1012.6 hPa | 0 mm | - | - | - |
| 1777732249 | 18.89° C | 60% | 1012.8 hPa | 0 mm | - | - | - |
| 1777731348 | 18.33° C | 60% | 1013 hPa | 0 mm | - | - | - |
| 1777730448 | 19.44° C | 58% | 1013.2 hPa | 0 mm | - | - | - |
| 1777729549 | 19.44° C | 56% | 1013.3 hPa | 0 mm | - | - | - |
| 1777728649 | 19.44° C | 56% | 1013.6 hPa | 0 mm | - | - | - |
| 1777727749 | 20° C | 55% | 1013.8 hPa | 0 mm | - | - | - |
| 1777726848 | 19.44° C | 56% | 1014 hPa | 0 mm | - | - | - |
| 1777725950 | 20° C | 55% | 1014.2 hPa | 0 mm | - | - | - |
| 1777725049 | 19.44° C | 57% | 1014.5 hPa | 0 mm | - | - | - |
| 1777724150 | 19.44° C | 56% | 1014.5 hPa | 0 mm | - | - | - |
| 1777723249 | 19.44° C | 57% | 1014.8 hPa | 0 mm | - | - | - |
| 1777722349 | 18.33° C | 60% | 1015.1 hPa | 0 mm | - | - | - |
| 1777721449 | 17.78° C | 61% | 1015.2 hPa | 0 mm | - | - | - |
| 1777720550 | 17.78° C | 62% | 1015.5 hPa | 0 mm | - | - | - |
| 1777719649 | 17.22° C | 64% | 1016 hPa | 0 mm | - | - | - |
| 1777718750 | 17.22° C | 64% | 1015.8 hPa | 0 mm | - | - | - |
| 1777717850 | 17.22° C | 64% | 1015.9 hPa | 0 mm | - | - | - |
| 1777716950 | 16.67° C | 65% | 1016.1 hPa | 0 mm | - | - | - |
| 1777716051 | 16.67° C | 66% | 1016.3 hPa | 0 mm | - | - | - |
| 1777715151 | 16.67° C | 65% | 1016.4 hPa | 0 mm | - | - | - |
| 1777714250 | 16.11° C | 68% | 1016.5 hPa | 0 mm | - | - | - |
* Rain latest hour (hover to see other rain measurements)
** Current wind speed in m/s (hover to see current wind gust speed)